Laida — EAVE — position and weather

sailwx.info

Track history (hours):
 
Tides and Currents Weather Stations Pressure Air Temp Water Temp Dewpoint Dewpoint Depression Visibility Wind Speed Wind Dir Waves Ship Positions

Laida

Last reported at 2016-Jun-26 22:10 UTC. Time now 2016-Jun-26 22:44 UTC.
Position N 53°37' E 000°29'.

Length 100 m; draft 6.2 m.

Type: Cargo ship. MMSI: 224509000.

Date/timePositionNaut miles runAvg speedWind from/ knotsBaromVisibWave heightAir tempDewpointWater temp
2016-Jun-26 22:10N 53°37' E 000°29'0 0.0
2016-Jun-26 21:22N 53°37' E 000°29'0 0.0
2016-Jun-26 20:22N 53°37' E 000°29'0 0.0
2016-Jun-26 19:28N 53°37' E 000°29'0 0.0
2016-Jun-26 18:31N 53°37' E 000°29'0 0.0
2016-Jun-26 05:28N 53°37' E 000°29'0 0.1
2016-Jun-26 03:31N 53°37' E 000°29'0 0.0
2016-Jun-26 02:13N 53°37' E 000°29'0 0.0
2016-Jun-26 00:19N 53°37' E 000°29'0 0.1
2016-Jun-25 22:25N 53°37' E 000°29'0 0.0
2016-Jun-25 21:31N 53°37' E 000°29'3 2.7
2016-Jun-25 20:30N 53°35' E 000°28'910.0
2016-Jun-25 19:34N 53°32' E 000°12'9 9.1
2016-Jun-25 18:33N 53°36' W 000°02'8 8.1
2016-Jun-25 17:33N 53°40' W 000°13'4 4.4
2016-Jun-25 16:34N 53°44' W 000°16'0 0.3
2016-Jun-25 15:34N 53°44' W 000°16'0 0.0
2016-Jun-25 14:33N 53°44' W 000°16'0 0.0
2016-Jun-25 13:33N 53°44' W 000°16'0 0.0
2016-Jun-25 12:34N 53°44' W 000°16'0 0.0
2016-Jun-25 11:33N 53°44' W 000°16'0 0.0
2016-Jun-25 10:33N 53°44' W 000°16'0 0.0
2016-Jun-25 09:34N 53°44' W 000°16'0 0.0
2016-Jun-25 08:34N 53°44' W 000°16'0 0.0
2016-Jun-25 07:34N 53°44' W 000°16'0 0.0
2016-Jun-25 06:34N 53°44' W 000°16'0 0.0
2016-Jun-25 05:33N 53°44' W 000°16'0 0.0
2016-Jun-25 04:33N 53°44' W 000°16'0 0.0
2016-Jun-25 03:33N 53°44' W 000°16'0 0.0
2016-Jun-25 02:34N 53°44' W 000°16'0 0.0
2016-Jun-25 01:34N 53°44' W 000°16'0 0.0
2016-Jun-25 00:33N 53°44' W 000°16'0 0.0
2016-Jun-24 23:34N 53°44' W 000°16'0 0.0
2016-Jun-24 22:33N 53°44' W 000°16'0 0.0
2016-Jun-24 21:33N 53°44' W 000°16'0 0.0
2016-Jun-24 20:33N 53°44' W 000°16'0 0.0
2016-Jun-24 19:33N 53°44' W 000°16'0 0.0
2016-Jun-24 18:33N 53°44' W 000°16'0 0.0
2016-Jun-24 17:34N 53°44' W 000°16'0 0.0
2016-Jun-24 16:33N 53°44' W 000°16'0 0.0
2016-Jun-24 15:34N 53°44' W 000°16'0 0.0
2016-Jun-24 14:34N 53°44' W 000°16'0 0.0
2016-Jun-24 13:34N 53°44' W 000°16'0 0.0
2016-Jun-24 12:34N 53°44' W 000°16'0 0.0
2016-Jun-24 11:34N 53°44' W 000°16'0 0.0
2016-Jun-24 10:33N 53°44' W 000°16'0 0.0
2016-Jun-24 09:34N 53°44' W 000°16'0 0.0
2016-Jun-24 08:33N 53°44' W 000°16'0 0.0
2016-Jun-24 07:33N 53°44' W 000°16'0 0.0
2016-Jun-24 04:33N 53°44' W 000°16'0 0.0
2016-Jun-24 03:33N 53°44' W 000°16'0 0.0
2016-Jun-24 02:34N 53°44' W 000°16'0 0.0
2016-Jun-24 01:34N 53°44' W 000°16'0 0.0
2016-Jun-24 00:34N 53°44' W 000°16'0 0.0
2016-Jun-23 23:33N 53°44' W 000°16'0 0.0
2016-Jun-23 22:33N 53°44' W 000°16'0 0.0
2016-Jun-23 21:33N 53°44' W 000°16'0 0.0
2016-Jun-23 20:33N 53°44' W 000°16'0 0.0
2016-Jun-23 19:33N 53°44' W 000°16'0 0.0
2016-Jun-23 18:33N 53°44' W 000°16'0 0.0
2016-Jun-23 17:33N 53°44' W 000°16'0 0.0
2016-Jun-23 16:33N 53°44' W 000°16'0 0.0
2016-Jun-23 15:33N 53°44' W 000°16'0 0.0
2016-Jun-23 14:33N 53°44' W 000°16'0 0.0
2016-Jun-23 13:33N 53°44' W 000°16'0 0.0
2016-Jun-23 12:33N 53°44' W 000°16'0 0.0
2016-Jun-23 11:33N 53°44' W 000°16'0 0.0
2016-Jun-23 10:34N 53°44' W 000°16'0 0.0
2016-Jun-23 09:34N 53°44' W 000°16'0 0.0
2016-Jun-23 08:34N 53°44' W 000°16'0 0.3
2016-Jun-23 07:33N 53°44' W 000°16'11 5.6
2016-Jun-23 05:34N 53°36' W 000°03'1110.7
2016-Jun-23 04:33N 53°33' E 000°14'8 8.1
2016-Jun-23 03:33N 53°40' E 000°21'8 8.2
2016-Jun-23 02:33N 53°47' E 000°15'10 9.6
2016-Jun-23 01:33N 53°55' E 000°06'11 9.3
2016-Jun-23 00:22N 54°06' E 000°02'7 8.9
2016-Jun-22 23:34N 54°12' W 000°04'9 9.0
2016-Jun-22 22:33N 54°20' W 000°12'9 8.9
2016-Jun-22 21:34N 54°27' W 000°20'8 8.4
2016-Jun-22 20:33N 54°35' W 000°28'9 8.9
2016-Jun-22 19:32N 54°40' W 000°40'9 9.1
2016-Jun-22 18:33N 54°45' W 000°54'9 9.2
2016-Jun-22 17:33N 54°50' W 001°07'9 9.1
2016-Jun-22 16:33N 54°55' W 001°20'1 1.3
2016-Jun-22 15:33N 54°55' W 001°21'0 0.0
2016-Jun-22 14:33N 54°55' W 001°21'0 0.0
2016-Jun-22 13:33N 54°55' W 001°21'0 0.0
2016-Jun-22 12:33N 54°55' W 001°21'0 0.0
2016-Jun-22 11:34N 54°55' W 001°21'0 0.0
2016-Jun-22 10:34N 54°55' W 001°21'0 0.0
2016-Jun-22 09:34N 54°55' W 001°21'0 0.0
2016-Jun-22 08:33N 54°55' W 001°21'0 0.0
2016-Jun-22 07:34N 54°55' W 001°21'0 0.0
2016-Jun-22 06:33N 54°55' W 001°21'0 0.0
2016-Jun-22 05:33N 54°55' W 001°21'0 0.0
2016-Jun-22 04:33N 54°55' W 001°21'0 0.0
2016-Jun-22 03:33N 54°55' W 001°21'0 0.0
2016-Jun-22 02:33N 54°55' W 001°21'0 0.0
2016-Jun-22 01:33N 54°55' W 001°21'0 0.0
2016-Jun-22 00:33N 54°55' W 001°21'0 0.0
2016-Jun-21 23:33N 54°55' W 001°21'0 0.0
2016-Jun-21 22:34N 54°55' W 001°21'0 0.0
2016-Jun-21 21:34N 54°55' W 001°21'0 0.0
2016-Jun-21 20:33N 54°55' W 001°21'0 0.0
2016-Jun-21 19:34N 54°55' W 001°21'0 0.0
2016-Jun-21 18:34N 54°55' W 001°21'0 0.0
2016-Jun-21 17:34N 54°55' W 001°21'0 0.0
2016-Jun-21 16:33N 54°55' W 001°21'0 0.0
2016-Jun-21 15:33N 54°55' W 001°21'0 0.0
2016-Jun-21 14:33N 54°55' W 001°21'0 0.0
2016-Jun-21 13:33N 54°55' W 001°21'0 0.0
2016-Jun-21 12:33N 54°55' W 001°21'0 0.0
2016-Jun-21 11:33N 54°55' W 001°21'0 0.0
2016-Jun-21 10:33N 54°55' W 001°21'0 0.0
2016-Jun-21 09:33N 54°55' W 001°21'0 0.0
2016-Jun-21 08:34N 54°55' W 001°21'0 0.0
2016-Jun-21 07:33N 54°55' W 001°21'0 0.0
2016-Jun-21 05:33N 54°55' W 001°21'0 0.0
2016-Jun-21 04:34N 54°55' W 001°21'0 0.0
2016-Jun-21 03:33N 54°55' W 001°21'0 0.0
2016-Jun-21 02:33N 54°55' W 001°21'0 0.0
2016-Jun-21 01:33N 54°55' W 001°21'0 0.0
2016-Jun-21 00:33N 54°55' W 001°21'0 0.0
2016-Jun-20 23:33N 54°55' W 001°21'0 0.0
2016-Jun-20 22:33N 54°55' W 001°21'0 0.0
2016-Jun-20 21:33N 54°55' W 001°21'0 0.0
2016-Jun-20 20:33N 54°55' W 001°21'0 0.0
2016-Jun-20 19:34N 54°55' W 001°21'0 0.0
2016-Jun-20 18:34N 54°55' W 001°21'0 0.0
2016-Jun-20 17:33N 54°55' W 001°21'0 0.0
2016-Jun-20 16:33N 54°55' W 001°21'0 0.0
2016-Jun-20 15:34N 54°55' W 001°21'0 0.0
2016-Jun-20 14:34N 54°55' W 001°21'0 0.0
2016-Jun-20 13:34N 54°55' W 001°21'0 0.0
2016-Jun-20 12:33N 54°55' W 001°21'0 0.0
2016-Jun-20 11:33N 54°55' W 001°21'0 0.0
2016-Jun-20 10:33N 54°55' W 001°21'0 0.0
2016-Jun-20 09:33N 54°55' W 001°21'0 0.0
2016-Jun-20 08:33N 54°55' W 001°21'0 0.0
2016-Jun-20 07:33N 54°55' W 001°21'0 0.0
2016-Jun-20 06:33N 54°55' W 001°21'0 0.0
2016-Jun-20 05:34N 54°55' W 001°21'0 0.0
2016-Jun-20 04:34N 54°55' W 001°21'0 0.0
2016-Jun-20 03:33N 54°55' W 001°21'0 0.0
2016-Jun-20 02:33N 54°55' W 001°21'0 0.0
2016-Jun-20 01:34N 54°55' W 001°22'2 1.5
2016-Jun-20 00:33N 54°55' W 001°19'0 0.1
2016-Jun-19 23:33N 54°56' W 001°20'0 0.0
2016-Jun-19 22:33N 54°56' W 001°20'0 0.0
2016-Jun-19 21:33N 54°56' W 001°20'0 0.0
2016-Jun-19 20:33N 54°56' W 001°20'0 0.0
2016-Jun-19 19:33N 54°56' W 001°20'0 0.0
2016-Jun-19 18:33N 54°56' W 001°20'0 0.3
2016-Jun-19 17:34N 54°55' W 001°19'10 9.8
2016-Jun-19 16:34N 54°50' W 001°04'1110.8
2016-Jun-19 15:32N 54°44' W 000°49'1110.5
2016-Jun-19 14:28N 54°38' W 000°33'9 9.9
2016-Jun-19 13:33N 54°31' W 000°23'1010.4
2016-Jun-19 12:34N 54°22' W 000°14'1110.9
2016-Jun-19 11:34N 54°13' W 000°04'2310.9
2016-Jun-19 09:29N 53°52' E 000°12'1213.0
2016-Jun-19 08:33N 53°43' E 000°25'1212.0
2016-Jun-19 07:34N 53°32' E 000°34'1511.6
2016-Jun-19 06:16N 53°18' E 000°42'710.2
2016-Jun-19 05:33N 53°12' E 000°49'1010.2
2016-Jun-19 04:34N 53°06' E 001°02'1111.0
2016-Jun-19 03:34N 53°02' E 001°19'1212.3
2016-Jun-19 02:34N 52°55' E 001°36'1413.7
2016-Jun-19 01:31N 52°46' E 001°54'3612.2
2016-Jun-18 22:33N 52°09' E 001°53'1111.1
2016-Jun-18 21:33N 51°58' E 001°50'1010.2
2016-Jun-18 20:33N 51°48' E 001°48'10 9.8
2016-Jun-18 19:33N 51°39' E 001°49'9 9.5
2016-Jun-18 18:33N 51°29' E 001°46'9 9.1
2016-Jun-18 17:34N 51°21' E 001°42'9 9.2
2016-Jun-18 16:33N 51°12' E 001°38'9 9.0
2016-Jun-18 15:33N 51°03' E 001°35'1110.7
2016-Jun-18 14:33N 50°55' E 001°24'6611.0
2016-Jun-18 08:33N 50°19' W 000°04'  
Track history (hours):
 
Tides and Currents Weather Stations Pressure Air Temp Water Temp Dewpoint Dewpoint Depression Visibility Wind Speed Wind Dir Waves Ship Positions

Laida

Last reported at 2016-Jun-26 22:10 UTC. Time now 2016-Jun-26 22:44 UTC.
Position N 53°37' E 000°29'.

Length 100 m; draft 6.2 m.

Type: Cargo ship. MMSI: 224509000.

Date/timePositionNaut miles runAvg speedWind from/ knotsBaromVisibWave heightAir tempDewpointWater temp
2016-Jun-26 22:10N 53°37' E 000°29'0 0.0
2016-Jun-26 21:22N 53°37' E 000°29'0 0.0
2016-Jun-26 20:22N 53°37' E 000°29'0 0.0
2016-Jun-26 19:28N 53°37' E 000°29'0 0.0
2016-Jun-26 18:31N 53°37' E 000°29'0 0.0
2016-Jun-26 05:28N 53°37' E 000°29'0 0.1
2016-Jun-26 03:31N 53°37' E 000°29'0 0.0
2016-Jun-26 02:13N 53°37' E 000°29'0 0.0
2016-Jun-26 00:19N 53°37' E 000°29'0 0.1
2016-Jun-25 22:25N 53°37' E 000°29'0 0.0
2016-Jun-25 21:31N 53°37' E 000°29'3 2.7
2016-Jun-25 20:30N 53°35' E 000°28'910.0
2016-Jun-25 19:34N 53°32' E 000°12'9 9.1
2016-Jun-25 18:33N 53°36' W 000°02'8 8.1
2016-Jun-25 17:33N 53°40' W 000°13'4 4.4
2016-Jun-25 16:34N 53°44' W 000°16'0 0.3
2016-Jun-25 15:34N 53°44' W 000°16'0 0.0
2016-Jun-25 14:33N 53°44' W 000°16'0 0.0
2016-Jun-25 13:33N 53°44' W 000°16'0 0.0
2016-Jun-25 12:34N 53°44' W 000°16'0 0.0
2016-Jun-25 11:33N 53°44' W 000°16'0 0.0
2016-Jun-25 10:33N 53°44' W 000°16'0 0.0
2016-Jun-25 09:34N 53°44' W 000°16'0 0.0
2016-Jun-25 08:34N 53°44' W 000°16'0 0.0
2016-Jun-25 07:34N 53°44' W 000°16'0 0.0
2016-Jun-25 06:34N 53°44' W 000°16'0 0.0
2016-Jun-25 05:33N 53°44' W 000°16'0 0.0
2016-Jun-25 04:33N 53°44' W 000°16'0 0.0
2016-Jun-25 03:33N 53°44' W 000°16'0 0.0
2016-Jun-25 02:34N 53°44' W 000°16'0 0.0
2016-Jun-25 01:34N 53°44' W 000°16'0 0.0
2016-Jun-25 00:33N 53°44' W 000°16'0 0.0
2016-Jun-24 23:34N 53°44' W 000°16'0 0.0
2016-Jun-24 22:33N 53°44' W 000°16'0 0.0
2016-Jun-24 21:33N 53°44' W 000°16'0 0.0
2016-Jun-24 20:33N 53°44' W 000°16'0 0.0
2016-Jun-24 19:33N 53°44' W 000°16'0 0.0
2016-Jun-24 18:33N 53°44' W 000°16'0 0.0
2016-Jun-24 17:34N 53°44' W 000°16'0 0.0
2016-Jun-24 16:33N 53°44' W 000°16'0 0.0
2016-Jun-24 15:34N 53°44' W 000°16'0 0.0
2016-Jun-24 14:34N 53°44' W 000°16'0 0.0
2016-Jun-24 13:34N 53°44' W 000°16'0 0.0
2016-Jun-24 12:34N 53°44' W 000°16'0 0.0
2016-Jun-24 11:34N 53°44' W 000°16'0 0.0
2016-Jun-24 10:33N 53°44' W 000°16'0 0.0
2016-Jun-24 09:34N 53°44' W 000°16'0 0.0
2016-Jun-24 08:33N 53°44' W 000°16'0 0.0
2016-Jun-24 07:33N 53°44' W 000°16'0 0.0
2016-Jun-24 04:33N 53°44' W 000°16'0 0.0
2016-Jun-24 03:33N 53°44' W 000°16'0 0.0
2016-Jun-24 02:34N 53°44' W 000°16'0 0.0
2016-Jun-24 01:34N 53°44' W 000°16'0 0.0
2016-Jun-24 00:34N 53°44' W 000°16'0 0.0
2016-Jun-23 23:33N 53°44' W 000°16'0 0.0
2016-Jun-23 22:33N 53°44' W 000°16'0 0.0
2016-Jun-23 21:33N 53°44' W 000°16'0 0.0
2016-Jun-23 20:33N 53°44' W 000°16'0 0.0
2016-Jun-23 19:33N 53°44' W 000°16'0 0.0
2016-Jun-23 18:33N 53°44' W 000°16'0 0.0
2016-Jun-23 17:33N 53°44' W 000°16'0 0.0
2016-Jun-23 16:33N 53°44' W 000°16'0 0.0
2016-Jun-23 15:33N 53°44' W 000°16'0 0.0
2016-Jun-23 14:33N 53°44' W 000°16'0 0.0
2016-Jun-23 13:33N 53°44' W 000°16'0 0.0
2016-Jun-23 12:33N 53°44' W 000°16'0 0.0
2016-Jun-23 11:33N 53°44' W 000°16'0 0.0
2016-Jun-23 10:34N 53°44' W 000°16'0 0.0
2016-Jun-23 09:34N 53°44' W 000°16'0 0.0
2016-Jun-23 08:34N 53°44' W 000°16'0 0.3
2016-Jun-23 07:33N 53°44' W 000°16'11 5.6
2016-Jun-23 05:34N 53°36' W 000°03'1110.7
2016-Jun-23 04:33N 53°33' E 000°14'8 8.1
2016-Jun-23 03:33N 53°40' E 000°21'8 8.2
2016-Jun-23 02:33N 53°47' E 000°15'10 9.6
2016-Jun-23 01:33N 53°55' E 000°06'11 9.3
2016-Jun-23 00:22N 54°06' E 000°02'7 8.9
2016-Jun-22 23:34N 54°12' W 000°04'9 9.0
2016-Jun-22 22:33N 54°20' W 000°12'9 8.9
2016-Jun-22 21:34N 54°27' W 000°20'8 8.4
2016-Jun-22 20:33N 54°35' W 000°28'9 8.9
2016-Jun-22 19:32N 54°40' W 000°40'9 9.1
2016-Jun-22 18:33N 54°45' W 000°54'9 9.2
2016-Jun-22 17:33N 54°50' W 001°07'9 9.1
2016-Jun-22 16:33N 54°55' W 001°20'1 1.3
2016-Jun-22 15:33N 54°55' W 001°21'0 0.0
2016-Jun-22 14:33N 54°55' W 001°21'0 0.0
2016-Jun-22 13:33N 54°55' W 001°21'0 0.0
2016-Jun-22 12:33N 54°55' W 001°21'0 0.0
2016-Jun-22 11:34N 54°55' W 001°21'0 0.0
2016-Jun-22 10:34N 54°55' W 001°21'0 0.0
2016-Jun-22 09:34N 54°55' W 001°21'0 0.0
2016-Jun-22 08:33N 54°55' W 001°21'0 0.0
2016-Jun-22 07:34N 54°55' W 001°21'0 0.0
2016-Jun-22 06:33N 54°55' W 001°21'0 0.0
2016-Jun-22 05:33N 54°55' W 001°21'0 0.0
2016-Jun-22 04:33N 54°55' W 001°21'0 0.0
2016-Jun-22 03:33N 54°55' W 001°21'0 0.0
2016-Jun-22 02:33N 54°55' W 001°21'0 0.0
2016-Jun-22 01:33N 54°55' W 001°21'0 0.0
2016-Jun-22 00:33N 54°55' W 001°21'0 0.0
2016-Jun-21 23:33N 54°55' W 001°21'0 0.0
2016-Jun-21 22:34N 54°55' W 001°21'0 0.0
2016-Jun-21 21:34N 54°55' W 001°21'0 0.0
2016-Jun-21 20:33N 54°55' W 001°21'0 0.0
2016-Jun-21 19:34N 54°55' W 001°21'0 0.0
2016-Jun-21 18:34N 54°55' W 001°21'0 0.0
2016-Jun-21 17:34N 54°55' W 001°21'0 0.0
2016-Jun-21 16:33N 54°55' W 001°21'0 0.0
2016-Jun-21 15:33N 54°55' W 001°21'0 0.0
2016-Jun-21 14:33N 54°55' W 001°21'0 0.0
2016-Jun-21 13:33N 54°55' W 001°21'0 0.0
2016-Jun-21 12:33N 54°55' W 001°21'0 0.0
2016-Jun-21 11:33N 54°55' W 001°21'0 0.0
2016-Jun-21 10:33N 54°55' W 001°21'0 0.0
2016-Jun-21 09:33N 54°55' W 001°21'0 0.0
2016-Jun-21 08:34N 54°55' W 001°21'0 0.0
2016-Jun-21 07:33N 54°55' W 001°21'0 0.0
2016-Jun-21 05:33N 54°55' W 001°21'0 0.0
2016-Jun-21 04:34N 54°55' W 001°21'0 0.0
2016-Jun-21 03:33N 54°55' W 001°21'0 0.0
2016-Jun-21 02:33N 54°55' W 001°21'0 0.0
2016-Jun-21 01:33N 54°55' W 001°21'0 0.0
2016-Jun-21 00:33N 54°55' W 001°21'0 0.0
2016-Jun-20 23:33N 54°55' W 001°21'0 0.0
2016-Jun-20 22:33N 54°55' W 001°21'0 0.0
2016-Jun-20 21:33N 54°55' W 001°21'0 0.0
2016-Jun-20 20:33N 54°55' W 001°21'0 0.0
2016-Jun-20 19:34N 54°55' W 001°21'0 0.0
2016-Jun-20 18:34N 54°55' W 001°21'0 0.0
2016-Jun-20 17:33N 54°55' W 001°21'0 0.0
2016-Jun-20 16:33N 54°55' W 001°21'0 0.0
2016-Jun-20 15:34N 54°55' W 001°21'0 0.0
2016-Jun-20 14:34N 54°55' W 001°21'0 0.0
2016-Jun-20 13:34N 54°55' W 001°21'0 0.0
2016-Jun-20 12:33N 54°55' W 001°21'0 0.0
2016-Jun-20 11:33N 54°55' W 001°21'0 0.0
2016-Jun-20 10:33N 54°55' W 001°21'0 0.0
2016-Jun-20 09:33N 54°55' W 001°21'0 0.0
2016-Jun-20 08:33N 54°55' W 001°21'0 0.0
2016-Jun-20 07:33N 54°55' W 001°21'0 0.0
2016-Jun-20 06:33N 54°55' W 001°21'0 0.0
2016-Jun-20 05:34N 54°55' W 001°21'0 0.0
2016-Jun-20 04:34N 54°55' W 001°21'0 0.0
2016-Jun-20 03:33N 54°55' W 001°21'0 0.0
2016-Jun-20 02:33N 54°55' W 001°21'0 0.0
2016-Jun-20 01:34N 54°55' W 001°22'2 1.5
2016-Jun-20 00:33N 54°55' W 001°19'0 0.1
2016-Jun-19 23:33N 54°56' W 001°20'0 0.0
2016-Jun-19 22:33N 54°56' W 001°20'0 0.0
2016-Jun-19 21:33N 54°56' W 001°20'0 0.0
2016-Jun-19 20:33N 54°56' W 001°20'0 0.0
2016-Jun-19 19:33N 54°56' W 001°20'0 0.0
2016-Jun-19 18:33N 54°56' W 001°20'0 0.3
2016-Jun-19 17:34N 54°55' W 001°19'10 9.8
2016-Jun-19 16:34N 54°50' W 001°04'1110.8
2016-Jun-19 15:32N 54°44' W 000°49'1110.5
2016-Jun-19 14:28N 54°38' W 000°33'9 9.9
2016-Jun-19 13:33N 54°31' W 000°23'1010.4
2016-Jun-19 12:34N 54°22' W 000°14'1110.9
2016-Jun-19 11:34N 54°13' W 000°04'2310.9
2016-Jun-19 09:29N 53°52' E 000°12'1213.0
2016-Jun-19 08:33N 53°43' E 000°25'1212.0
2016-Jun-19 07:34N 53°32' E 000°34'1511.6
2016-Jun-19 06:16N 53°18' E 000°42'710.2
2016-Jun-19 05:33N 53°12' E 000°49'1010.2
2016-Jun-19 04:34N 53°06' E 001°02'1111.0
2016-Jun-19 03:34N 53°02' E 001°19'1212.3
2016-Jun-19 02:34N 52°55' E 001°36'1413.7
2016-Jun-19 01:31N 52°46' E 001°54'3612.2
2016-Jun-18 22:33N 52°09' E 001°53'1111.1
2016-Jun-18 21:33N 51°58' E 001°50'1010.2
2016-Jun-18 20:33N 51°48' E 001°48'10 9.8
2016-Jun-18 19:33N 51°39' E 001°49'9 9.5
2016-Jun-18 18:33N 51°29' E 001°46'9 9.1
2016-Jun-18 17:34N 51°21' E 001°42'9 9.2
2016-Jun-18 16:33N 51°12' E 001°38'9 9.0
2016-Jun-18 15:33N 51°03' E 001°35'1110.7
2016-Jun-18 14:33N 50°55' E 001°24'6611.0
2016-Jun-18 08:33N 50°19' W 000°04'  

Dump ship's entire track history